sensor_id;sensor_type;location;lat;lon;timestamp;temperature;humidity
21487;DHT22;10905;50.822;4.336;2024-03-17T00:01:17;10.50;99.90
21487;DHT22;10905;50.822;4.336;2024-03-17T00:03:42;10.50;99.90
21487;DHT22;10905;50.822;4.336;2024-03-17T00:06:08;10.40;99.90
21487;DHT22;10905;50.822;4.336;2024-03-17T00:08:35;10.40;99.90
21487;DHT22;10905;50.822;4.336;2024-03-17T00:11:00;10.40;99.90
21487;DHT22;10905;50.822;4.336;2024-03-17T00:13:26;10.40;99.90
21487;DHT22;10905;50.822;4.336;2024-03-17T00:15:52;10.40;99.90
21487;DHT22;10905;50.822;4.336;2024-03-17T00:18:18;10.40;99.90
21487;DHT22;10905;50.822;4.336;2024-03-17T00:20:44;10.40;99.90
21487;DHT22;10905;50.822;4.336;2024-03-17T00:23:10;10.40;99.90
21487;DHT22;10905;50.822;4.336;2024-03-17T00:25:37;10.30;99.90
21487;DHT22;10905;50.822;4.336;2024-03-17T00:28:04;10.30;99.90
21487;DHT22;10905;50.822;4.336;2024-03-17T00:30:29;10.30;99.90
21487;DHT22;10905;50.822;4.336;2024-03-17T00:32:56;10.30;99.90
21487;DHT22;10905;50.822;4.336;2024-03-17T00:35:23;10.30;99.90
21487;DHT22;10905;50.822;4.336;2024-03-17T00:37:50;10.30;99.90
21487;DHT22;10905;50.822;4.336;2024-03-17T00:40:19;10.30;99.90
21487;DHT22;10905;50.822;4.336;2024-03-17T00:42:45;10.20;99.90
21487;DHT22;10905;50.822;4.336;2024-03-17T00:45:11;10.20;99.90
21487;DHT22;10905;50.822;4.336;2024-03-17T00:47:37;10.10;99.90
21487;DHT22;10905;50.822;4.336;2024-03-17T00:50:05;10.10;99.90
21487;DHT22;10905;50.822;4.336;2024-03-17T00:52:32;10.10;99.90
21487;DHT22;10905;50.822;4.336;2024-03-17T00:54:58;10.10;99.90
21487;DHT22;10905;50.822;4.336;2024-03-17T00:57:23;10.10;99.90
21487;DHT22;10905;50.822;4.336;2024-03-17T00:59:50;10.10;99.90
21487;DHT22;10905;50.822;4.336;2024-03-17T01:02:16;10.00;99.90
21487;DHT22;10905;50.822;4.336;2024-03-17T01:04:43;10.00;99.90
21487;DHT22;10905;50.822;4.336;2024-03-17T01:07:12;10.10;99.90
21487;DHT22;10905;50.822;4.336;2024-03-17T01:09:38;10.10;99.90
21487;DHT22;10905;50.822;4.336;2024-03-17T01:12:04;10.00;99.90
21487;DHT22;10905;50.822;4.336;2024-03-17T01:14:30;10.00;99.90
21487;DHT22;10905;50.822;4.336;2024-03-17T01:16:56;10.00;99.90
21487;DHT22;10905;50.822;4.336;2024-03-17T01:19:23;10.00;99.90
21487;DHT22;10905;50.822;4.336;2024-03-17T01:21:49;10.00;99.90
21487;DHT22;10905;50.822;4.336;2024-03-17T01:24:14;10.00;99.90
21487;DHT22;10905;50.822;4.336;2024-03-17T01:26:42;10.10;99.90
21487;DHT22;10905;50.822;4.336;2024-03-17T01:29:07;10.10;99.90
21487;DHT22;10905;50.822;4.336;2024-03-17T01:31:34;10.30;99.90
21487;DHT22;10905;50.822;4.336;2024-03-17T01:34:00;10.30;99.90
21487;DHT22;10905;50.822;4.336;2024-03-17T01:36:25;10.30;99.90
21487;DHT22;10905;50.822;4.336;2024-03-17T01:38:51;10.30;99.90
21487;DHT22;10905;50.822;4.336;2024-03-17T01:41:16;10.30;99.90
21487;DHT22;10905;50.822;4.336;2024-03-17T01:43:42;10.30;99.90
21487;DHT22;10905;50.822;4.336;2024-03-17T01:46:13;10.30;99.90
21487;DHT22;10905;50.822;4.336;2024-03-17T01:48:40;10.20;99.90
21487;DHT22;10905;50.822;4.336;2024-03-17T01:51:07;10.20;99.90
21487;DHT22;10905;50.822;4.336;2024-03-17T01:53:33;10.30;99.90
21487;DHT22;10905;50.822;4.336;2024-03-17T01:55:59;10.30;99.90
21487;DHT22;10905;50.822;4.336;2024-03-17T01:58:25;10.30;99.90
21487;DHT22;10905;50.822;4.336;2024-03-17T02:00:52;10.20;99.90
21487;DHT22;10905;50.822;4.336;2024-03-17T02:03:18;10.10;99.90
21487;DHT22;10905;50.822;4.336;2024-03-17T02:05:44;10.10;99.90
21487;DHT22;10905;50.822;4.336;2024-03-17T02:08:11;10.10;99.90
21487;DHT22;10905;50.822;4.336;2024-03-17T02:10:40;10.20;99.90
21487;DHT22;10905;50.822;4.336;2024-03-17T02:13:05;10.20;99.90
21487;DHT22;10905;50.822;4.336;2024-03-17T02:15:32;10.20;99.90
21487;DHT22;10905;50.822;4.336;2024-03-17T02:17:58;10.30;99.90
21487;DHT22;10905;50.822;4.336;2024-03-17T02:20:24;10.30;99.90
21487;DHT22;10905;50.822;4.336;2024-03-17T02:23:09;10.30;99.90
21487;DHT22;10905;50.822;4.336;2024-03-17T02:25:35;10.30;99.90
21487;DHT22;10905;50.822;4.336;2024-03-17T02:28:01;10.20;99.90
21487;DHT22;10905;50.822;4.336;2024-03-17T02:30:27;10.20;99.90
21487;DHT22;10905;50.822;4.336;2024-03-17T02:32:53;10.20;99.90
21487;DHT22;10905;50.822;4.336;2024-03-17T02:35:19;10.20;99.90
21487;DHT22;10905;50.822;4.336;2024-03-17T02:37:44;10.20;99.90
21487;DHT22;10905;50.822;4.336;2024-03-17T02:40:10;10.20;99.90
21487;DHT22;10905;50.822;4.336;2024-03-17T02:42:36;10.30;99.90
21487;DHT22;10905;50.822;4.336;2024-03-17T02:45:04;10.30;99.90
21487;DHT22;10905;50.822;4.336;2024-03-17T02:47:31;10.30;99.90
21487;DHT22;10905;50.822;4.336;2024-03-17T02:49:57;10.30;99.90
21487;DHT22;10905;50.822;4.336;2024-03-17T02:52:23;10.40;99.90
21487;DHT22;10905;50.822;4.336;2024-03-17T02:54:49;10.40;99.90
21487;DHT22;10905;50.822;4.336;2024-03-17T02:57:15;10.40;99.90
21487;DHT22;10905;50.822;4.336;2024-03-17T02:59:41;10.30;99.90
21487;DHT22;10905;50.822;4.336;2024-03-17T03:02:07;10.30;99.90
21487;DHT22;10905;50.822;4.336;2024-03-17T03:04:32;10.30;99.90
21487;DHT22;10905;50.822;4.336;2024-03-17T03:06:58;10.40;99.90
21487;DHT22;10905;50.822;4.336;2024-03-17T03:09:24;10.30;99.90
21487;DHT22;10905;50.822;4.336;2024-03-17T03:11:57;10.30;99.90
21487;DHT22;10905;50.822;4.336;2024-03-17T03:14:23;10.30;99.90
21487;DHT22;10905;50.822;4.336;2024-03-17T03:16:49;10.40;99.90
21487;DHT22;10905;50.822;4.336;2024-03-17T03:19:16;10.40;99.90
21487;DHT22;10905;50.822;4.336;2024-03-17T03:21:41;10.40;99.90
21487;DHT22;10905;50.822;4.336;2024-03-17T03:24:07;10.40;99.90
21487;DHT22;10905;50.822;4.336;2024-03-17T03:26:33;10.30;99.90
21487;DHT22;10905;50.822;4.336;2024-03-17T03:28:58;10.40;99.90
21487;DHT22;10905;50.822;4.336;2024-03-17T03:31:24;10.40;99.90
21487;DHT22;10905;50.822;4.336;2024-03-17T03:33:50;10.40;99.90
21487;DHT22;10905;50.822;4.336;2024-03-17T03:36:16;10.30;99.90
21487;DHT22;10905;50.822;4.336;2024-03-17T03:38:44;10.30;99.90
21487;DHT22;10905;50.822;4.336;2024-03-17T03:41:14;10.30;99.90
21487;DHT22;10905;50.822;4.336;2024-03-17T03:43:40;10.20;99.90
21487;DHT22;10905;50.822;4.336;2024-03-17T03:46:07;10.30;99.90
21487;DHT22;10905;50.822;4.336;2024-03-17T03:48:33;10.20;99.90
21487;DHT22;10905;50.822;4.336;2024-03-17T03:51:04;10.20;99.90
21487;DHT22;10905;50.822;4.336;2024-03-17T03:53:31;10.20;99.90
21487;DHT22;10905;50.822;4.336;2024-03-17T03:55:57;10.10;99.90
21487;DHT22;10905;50.822;4.336;2024-03-17T03:58:24;10.00;99.90
21487;DHT22;10905;50.822;4.336;2024-03-17T04:00:49;10.00;99.90
21487;DHT22;10905;50.822;4.336;2024-03-17T04:03:15;9.90;99.90
21487;DHT22;10905;50.822;4.336;2024-03-17T04:05:41;9.90;99.90
21487;DHT22;10905;50.822;4.336;2024-03-17T04:08:06;9.90;99.90
21487;DHT22;10905;50.822;4.336;2024-03-17T04:10:34;9.90;99.90
21487;DHT22;10905;50.822;4.336;2024-03-17T04:13:00;9.90;99.90
21487;DHT22;10905;50.822;4.336;2024-03-17T04:15:26;9.80;99.90
21487;DHT22;10905;50.822;4.336;2024-03-17T04:17:51;9.70;99.90
21487;DHT22;10905;50.822;4.336;2024-03-17T04:20:18;9.60;99.90
21487;DHT22;10905;50.822;4.336;2024-03-17T04:22:43;9.60;99.90
21487;DHT22;10905;50.822;4.336;2024-03-17T04:25:10;9.60;99.90
21487;DHT22;10905;50.822;4.336;2024-03-17T04:27:36;9.70;99.90
21487;DHT22;10905;50.822;4.336;2024-03-17T04:30:02;9.70;99.90
21487;DHT22;10905;50.822;4.336;2024-03-17T04:32:31;9.60;99.90
21487;DHT22;10905;50.822;4.336;2024-03-17T04:34:58;9.60;99.90
21487;DHT22;10905;50.822;4.336;2024-03-17T04:37:23;9.70;99.90
21487;DHT22;10905;50.822;4.336;2024-03-17T04:39:50;9.70;99.90
21487;DHT22;10905;50.822;4.336;2024-03-17T04:42:17;9.80;99.90
21487;DHT22;10905;50.822;4.336;2024-03-17T04:44:44;9.90;99.90
21487;DHT22;10905;50.822;4.336;2024-03-17T04:47:10;9.90;99.90
21487;DHT22;10905;50.822;4.336;2024-03-17T04:49:39;9.90;99.90
21487;DHT22;10905;50.822;4.336;2024-03-17T04:52:05;9.90;99.90
21487;DHT22;10905;50.822;4.336;2024-03-17T04:54:32;9.70;99.90
21487;DHT22;10905;50.822;4.336;2024-03-17T04:56:58;9.80;99.90
21487;DHT22;10905;50.822;4.336;2024-03-17T04:59:24;9.80;99.90
21487;DHT22;10905;50.822;4.336;2024-03-17T05:01:49;9.70;99.90
21487;DHT22;10905;50.822;4.336;2024-03-17T05:04:15;9.70;99.90
21487;DHT22;10905;50.822;4.336;2024-03-17T05:06:41;9.80;99.90
21487;DHT22;10905;50.822;4.336;2024-03-17T05:09:14;9.80;99.90
21487;DHT22;10905;50.822;4.336;2024-03-17T05:11:40;9.80;99.90
21487;DHT22;10905;50.822;4.336;2024-03-17T05:14:07;9.90;99.90
21487;DHT22;10905;50.822;4.336;2024-03-17T05:16:33;9.90;99.90
21487;DHT22;10905;50.822;4.336;2024-03-17T05:18:59;10.00;99.90
21487;DHT22;10905;50.822;4.336;2024-03-17T05:21:25;9.80;99.90
21487;DHT22;10905;50.822;4.336;2024-03-17T05:23:52;9.90;99.90
21487;DHT22;10905;50.822;4.336;2024-03-17T05:26:18;9.90;99.90
21487;DHT22;10905;50.822;4.336;2024-03-17T05:28:43;10.00;99.90
21487;DHT22;10905;50.822;4.336;2024-03-17T05:31:12;10.10;99.90
21487;DHT22;10905;50.822;4.336;2024-03-17T05:33:40;10.10;99.90
21487;DHT22;10905;50.822;4.336;2024-03-17T05:36:06;10.00;99.90
21487;DHT22;10905;50.822;4.336;2024-03-17T05:38:32;10.00;99.90
21487;DHT22;10905;50.822;4.336;2024-03-17T05:40:58;10.10;99.90
21487;DHT22;10905;50.822;4.336;2024-03-17T05:43:26;10.10;99.90
21487;DHT22;10905;50.822;4.336;2024-03-17T05:45:57;10.10;99.90
21487;DHT22;10905;50.822;4.336;2024-03-17T05:48:23;10.10;99.90
21487;DHT22;10905;50.822;4.336;2024-03-17T05:50:52;10.10;99.90
21487;DHT22;10905;50.822;4.336;2024-03-17T05:53:19;10.10;99.90
21487;DHT22;10905;50.822;4.336;2024-03-17T05:55:44;10.20;99.90
21487;DHT22;10905;50.822;4.336;2024-03-17T05:58:10;10.20;99.90
21487;DHT22;10905;50.822;4.336;2024-03-17T06:00:37;10.10;99.90
21487;DHT22;10905;50.822;4.336;2024-03-17T06:03:04;10.10;99.90
21487;DHT22;10905;50.822;4.336;2024-03-17T06:05:33;10.10;99.90
21487;DHT22;10905;50.822;4.336;2024-03-17T06:08:03;10.10;99.90
21487;DHT22;10905;50.822;4.336;2024-03-17T06:10:30;10.30;99.90
21487;DHT22;10905;50.822;4.336;2024-03-17T06:12:56;10.30;99.90
21487;DHT22;10905;50.822;4.336;2024-03-17T06:15:26;10.30;99.90
21487;DHT22;10905;50.822;4.336;2024-03-17T06:17:52;10.30;99.90
21487;DHT22;10905;50.822;4.336;2024-03-17T06:20:27;10.40;99.90
21487;DHT22;10905;50.822;4.336;2024-03-17T06:22:54;10.40;99.90
21487;DHT22;10905;50.822;4.336;2024-03-17T06:25:19;10.50;99.90
21487;DHT22;10905;50.822;4.336;2024-03-17T06:27:46;10.60;99.90
21487;DHT22;10905;50.822;4.336;2024-03-17T06:30:14;10.70;99.90
21487;DHT22;10905;50.822;4.336;2024-03-17T06:32:44;10.70;99.90
21487;DHT22;10905;50.822;4.336;2024-03-17T06:35:13;10.70;99.90
21487;DHT22;10905;50.822;4.336;2024-03-17T06:37:46;10.70;99.90
21487;DHT22;10905;50.822;4.336;2024-03-17T06:40:14;10.60;99.90
21487;DHT22;10905;50.822;4.336;2024-03-17T06:42:39;10.60;99.90
21487;DHT22;10905;50.822;4.336;2024-03-17T06:45:06;10.60;99.90
21487;DHT22;10905;50.822;4.336;2024-03-17T06:47:34;10.70;99.90
21487;DHT22;10905;50.822;4.336;2024-03-17T06:50:04;10.70;99.90
21487;DHT22;10905;50.822;4.336;2024-03-17T06:52:30;10.60;99.90
21487;DHT22;10905;50.822;4.336;2024-03-17T06:54:57;10.60;99.90
21487;DHT22;10905;50.822;4.336;2024-03-17T06:57:24;10.70;99.90
21487;DHT22;10905;50.822;4.336;2024-03-17T06:59:49;10.90;99.90
21487;DHT22;10905;50.822;4.336;2024-03-17T07:02:16;10.90;99.90
21487;DHT22;10905;50.822;4.336;2024-03-17T07:04:44;11.00;99.90
21487;DHT22;10905;50.822;4.336;2024-03-17T07:07:10;11.00;99.90
21487;DHT22;10905;50.822;4.336;2024-03-17T07:09:37;11.10;99.90
21487;DHT22;10905;50.822;4.336;2024-03-17T07:12:04;11.10;99.90
21487;DHT22;10905;50.822;4.336;2024-03-17T07:14:30;11.20;99.90
21487;DHT22;10905;50.822;4.336;2024-03-17T07:16:57;11.30;99.90
21487;DHT22;10905;50.822;4.336;2024-03-17T07:19:22;11.30;99.90
21487;DHT22;10905;50.822;4.336;2024-03-17T07:21:48;11.20;99.90
21487;DHT22;10905;50.822;4.336;2024-03-17T07:24:14;11.20;99.90
21487;DHT22;10905;50.822;4.336;2024-03-17T07:26:39;11.20;99.90
21487;DHT22;10905;50.822;4.336;2024-03-17T07:29:05;11.30;99.90
21487;DHT22;10905;50.822;4.336;2024-03-17T07:31:31;11.20;99.90
21487;DHT22;10905;50.822;4.336;2024-03-17T07:33:57;11.30;99.90
21487;DHT22;10905;50.822;4.336;2024-03-17T07:36:23;11.40;99.90
21487;DHT22;10905;50.822;4.336;2024-03-17T07:38:49;11.30;99.90
21487;DHT22;10905;50.822;4.336;2024-03-17T07:41:14;11.40;99.90
21487;DHT22;10905;50.822;4.336;2024-03-17T07:43:40;11.40;99.90
21487;DHT22;10905;50.822;4.336;2024-03-17T07:46:10;11.50;99.90
21487;DHT22;10905;50.822;4.336;2024-03-17T07:48:43;11.60;99.90
21487;DHT22;10905;50.822;4.336;2024-03-17T07:51:15;11.80;99.90
21487;DHT22;10905;50.822;4.336;2024-03-17T07:53:45;11.90;99.90
21487;DHT22;10905;50.822;4.336;2024-03-17T07:56:13;12.10;99.90
21487;DHT22;10905;50.822;4.336;2024-03-17T07:58:41;12.20;99.90
21487;DHT22;10905;50.822;4.336;2024-03-17T08:01:08;12.30;99.90
21487;DHT22;10905;50.822;4.336;2024-03-17T08:03:36;12.40;99.90
21487;DHT22;10905;50.822;4.336;2024-03-17T08:06:04;12.40;99.90
21487;DHT22;10905;50.822;4.336;2024-03-17T08:08:30;12.50;99.90
21487;DHT22;10905;50.822;4.336;2024-03-17T08:10:56;12.50;99.90
21487;DHT22;10905;50.822;4.336;2024-03-17T08:13:22;12.50;99.90
21487;DHT22;10905;50.822;4.336;2024-03-17T08:15:56;12.50;99.90
21487;DHT22;10905;50.822;4.336;2024-03-17T08:18:22;12.60;99.90
21487;DHT22;10905;50.822;4.336;2024-03-17T08:20:48;12.80;99.90
21487;DHT22;10905;50.822;4.336;2024-03-17T08:23:14;12.80;99.90
21487;DHT22;10905;50.822;4.336;2024-03-17T08:25:40;12.70;99.90
21487;DHT22;10905;50.822;4.336;2024-03-17T08:28:06;12.90;99.90
21487;DHT22;10905;50.822;4.336;2024-03-17T08:30:32;12.80;99.90
21487;DHT22;10905;50.822;4.336;2024-03-17T08:32:59;12.80;99.90
21487;DHT22;10905;50.822;4.336;2024-03-17T08:35:24;12.90;99.90
21487;DHT22;10905;50.822;4.336;2024-03-17T08:37:50;12.90;99.90
21487;DHT22;10905;50.822;4.336;2024-03-17T08:40:17;13.00;99.90
21487;DHT22;10905;50.822;4.336;2024-03-17T08:42:43;13.00;99.90
21487;DHT22;10905;50.822;4.336;2024-03-17T08:45:11;12.90;99.90
21487;DHT22;10905;50.822;4.336;2024-03-17T08:47:37;12.90;99.90
21487;DHT22;10905;50.822;4.336;2024-03-17T08:50:03;13.00;99.90
21487;DHT22;10905;50.822;4.336;2024-03-17T08:52:30;13.00;99.90
21487;DHT22;10905;50.822;4.336;2024-03-17T08:54:57;13.10;99.90
21487;DHT22;10905;50.822;4.336;2024-03-17T08:57:23;13.10;99.90
21487;DHT22;10905;50.822;4.336;2024-03-17T08:59:49;13.40;99.90
21487;DHT22;10905;50.822;4.336;2024-03-17T09:02:17;13.40;99.90
21487;DHT22;10905;50.822;4.336;2024-03-17T09:04:42;13.60;99.90
21487;DHT22;10905;50.822;4.336;2024-03-17T09:07:08;13.80;99.90
21487;DHT22;10905;50.822;4.336;2024-03-17T09:09:34;13.90;99.90
21487;DHT22;10905;50.822;4.336;2024-03-17T09:11:59;14.10;99.90
21487;DHT22;10905;50.822;4.336;2024-03-17T09:14:25;14.20;99.90
21487;DHT22;10905;50.822;4.336;2024-03-17T09:16:51;14.30;99.90
21487;DHT22;10905;50.822;4.336;2024-03-17T09:19:16;14.20;99.90
21487;DHT22;10905;50.822;4.336;2024-03-17T09:21:42;14.10;99.90
21487;DHT22;10905;50.822;4.336;2024-03-17T09:24:08;14.00;99.90
21487;DHT22;10905;50.822;4.336;2024-03-17T09:26:34;14.00;99.90
21487;DHT22;10905;50.822;4.336;2024-03-17T09:29:01;13.90;99.90
21487;DHT22;10905;50.822;4.336;2024-03-17T09:31:26;13.90;99.90
21487;DHT22;10905;50.822;4.336;2024-03-17T09:33:52;13.80;99.90
21487;DHT22;10905;50.822;4.336;2024-03-17T09:36:18;13.70;99.90
21487;DHT22;10905;50.822;4.336;2024-03-17T09:38:44;13.80;99.90
21487;DHT22;10905;50.822;4.336;2024-03-17T09:41:25;13.70;99.90
21487;DHT22;10905;50.822;4.336;2024-03-17T09:43:56;13.70;99.90
21487;DHT22;10905;50.822;4.336;2024-03-17T09:46:26;13.60;99.90
21487;DHT22;10905;50.822;4.336;2024-03-17T09:48:53;13.60;99.90
21487;DHT22;10905;50.822;4.336;2024-03-17T09:51:25;13.70;99.90
21487;DHT22;10905;50.822;4.336;2024-03-17T09:53:51;13.60;99.90
21487;DHT22;10905;50.822;4.336;2024-03-17T09:56:21;13.60;99.90
21487;DHT22;10905;50.822;4.336;2024-03-17T09:58:49;13.70;99.90
21487;DHT22;10905;50.822;4.336;2024-03-17T10:01:16;13.70;99.90
21487;DHT22;10905;50.822;4.336;2024-03-17T10:03:48;13.70;99.90
21487;DHT22;10905;50.822;4.336;2024-03-17T10:06:23;13.80;99.90
21487;DHT22;10905;50.822;4.336;2024-03-17T10:08:53;13.80;99.90
21487;DHT22;10905;50.822;4.336;2024-03-17T10:11:24;13.80;99.90
21487;DHT22;10905;50.822;4.336;2024-03-17T10:14:00;13.90;99.90
21487;DHT22;10905;50.822;4.336;2024-03-17T10:16:27;13.90;99.90
21487;DHT22;10905;50.822;4.336;2024-03-17T10:21:35;14.00;99.90
21487;DHT22;10905;50.822;4.336;2024-03-17T10:26:36;14.10;99.90
21487;DHT22;10905;50.822;4.336;2024-03-17T10:29:03;14.10;99.90
21487;DHT22;10905;50.822;4.336;2024-03-17T10:31:29;14.20;99.90
21487;DHT22;10905;50.822;4.336;2024-03-17T10:34:02;14.30;99.90
21487;DHT22;10905;50.822;4.336;2024-03-17T10:36:27;14.40;99.90
21487;DHT22;10905;50.822;4.336;2024-03-17T10:38:53;14.50;99.90
21487;DHT22;10905;50.822;4.336;2024-03-17T10:41:21;14.70;99.90
21487;DHT22;10905;50.822;4.336;2024-03-17T10:43:47;14.70;99.90
21487;DHT22;10905;50.822;4.336;2024-03-17T10:46:14;14.70;99.90
21487;DHT22;10905;50.822;4.336;2024-03-17T10:48:41;14.80;99.90
21487;DHT22;10905;50.822;4.336;2024-03-17T10:51:16;15.00;99.90
21487;DHT22;10905;50.822;4.336;2024-03-17T10:53:43;15.00;99.90
21487;DHT22;10905;50.822;4.336;2024-03-17T10:56:13;15.00;99.90
21487;DHT22;10905;50.822;4.336;2024-03-17T10:58:44;15.00;99.90
21487;DHT22;10905;50.822;4.336;2024-03-17T11:01:16;15.10;99.90
21487;DHT22;10905;50.822;4.336;2024-03-17T11:03:46;15.30;99.90
21487;DHT22;10905;50.822;4.336;2024-03-17T11:06:12;15.40;99.90
21487;DHT22;10905;50.822;4.336;2024-03-17T11:08:39;15.50;99.90
21487;DHT22;10905;50.822;4.336;2024-03-17T11:11:07;15.50;99.90
21487;DHT22;10905;50.822;4.336;2024-03-17T11:13:34;15.70;99.90
21487;DHT22;10905;50.822;4.336;2024-03-17T11:16:02;15.80;99.90
21487;DHT22;10905;50.822;4.336;2024-03-17T11:18:34;16.00;99.90
21487;DHT22;10905;50.822;4.336;2024-03-17T11:21:01;16.40;99.90
21487;DHT22;10905;50.822;4.336;2024-03-17T11:23:34;16.50;99.90
21487;DHT22;10905;50.822;4.336;2024-03-17T11:26:00;16.60;99.90
21487;DHT22;10905;50.822;4.336;2024-03-17T11:28:45;16.60;99.90
21487;DHT22;10905;50.822;4.336;2024-03-17T11:31:44;16.70;99.90
21487;DHT22;10905;50.822;4.336;2024-03-17T11:34:35;16.80;99.90
21487;DHT22;10905;50.822;4.336;2024-03-17T11:37:03;16.90;99.90
21487;DHT22;10905;50.822;4.336;2024-03-17T11:42:13;16.90;99.90
21487;DHT22;10905;50.822;4.336;2024-03-17T11:45:03;16.90;99.90
21487;DHT22;10905;50.822;4.336;2024-03-17T11:47:38;16.90;99.90
21487;DHT22;10905;50.822;4.336;2024-03-17T11:50:06;16.80;99.90
21487;DHT22;10905;50.822;4.336;2024-03-17T11:52:33;17.00;99.90
21487;DHT22;10905;50.822;4.336;2024-03-17T11:54:58;17.10;99.90
21487;DHT22;10905;50.822;4.336;2024-03-17T11:57:25;17.20;99.90
21487;DHT22;10905;50.822;4.336;2024-03-17T11:59:53;17.20;99.90
21487;DHT22;10905;50.822;4.336;2024-03-17T12:02:27;17.00;99.90
21487;DHT22;10905;50.822;4.336;2024-03-17T12:04:54;17.00;99.90
21487;DHT22;10905;50.822;4.336;2024-03-17T12:07:22;16.90;99.90
21487;DHT22;10905;50.822;4.336;2024-03-17T12:09:54;17.00;99.90
21487;DHT22;10905;50.822;4.336;2024-03-17T12:12:22;17.00;99.90
21487;DHT22;10905;50.822;4.336;2024-03-17T12:14:49;17.00;99.90
21487;DHT22;10905;50.822;4.336;2024-03-17T12:17:23;17.00;99.90
21487;DHT22;10905;50.822;4.336;2024-03-17T12:19:49;16.90;99.90
21487;DHT22;10905;50.822;4.336;2024-03-17T12:22:17;16.90;99.90
21487;DHT22;10905;50.822;4.336;2024-03-17T12:24:51;17.00;99.90
21487;DHT22;10905;50.822;4.336;2024-03-17T12:27:26;17.30;99.90
21487;DHT22;10905;50.822;4.336;2024-03-17T12:29:54;17.40;99.90
21487;DHT22;10905;50.822;4.336;2024-03-17T12:32:21;17.70;99.90
21487;DHT22;10905;50.822;4.336;2024-03-17T12:37:19;17.90;99.90
21487;DHT22;10905;50.822;4.336;2024-03-17T12:39:45;17.80;99.90
21487;DHT22;10905;50.822;4.336;2024-03-17T12:42:13;17.80;99.90
21487;DHT22;10905;50.822;4.336;2024-03-17T12:44:50;17.90;99.90
21487;DHT22;10905;50.822;4.336;2024-03-17T12:47:19;17.90;99.90
21487;DHT22;10905;50.822;4.336;2024-03-17T12:49:46;17.90;99.90
21487;DHT22;10905;50.822;4.336;2024-03-17T12:52:19;17.90;99.90
21487;DHT22;10905;50.822;4.336;2024-03-17T12:54:55;17.90;99.90
21487;DHT22;10905;50.822;4.336;2024-03-17T12:57:41;17.80;99.90
21487;DHT22;10905;50.822;4.336;2024-03-17T13:00:25;17.90;99.90
21487;DHT22;10905;50.822;4.336;2024-03-17T13:03:00;18.00;99.90
21487;DHT22;10905;50.822;4.336;2024-03-17T13:05:26;18.00;99.90
21487;DHT22;10905;50.822;4.336;2024-03-17T13:07:53;18.10;99.90
21487;DHT22;10905;50.822;4.336;2024-03-17T13:10:22;18.00;99.90
21487;DHT22;10905;50.822;4.336;2024-03-17T13:12:48;17.80;99.90
21487;DHT22;10905;50.822;4.336;2024-03-17T13:15:22;17.60;99.90
21487;DHT22;10905;50.822;4.336;2024-03-17T13:17:48;17.50;99.90
21487;DHT22;10905;50.822;4.336;2024-03-17T13:20:17;17.40;99.90
21487;DHT22;10905;50.822;4.336;2024-03-17T13:22:44;17.30;99.90
21487;DHT22;10905;50.822;4.336;2024-03-17T13:25:20;17.20;99.90
21487;DHT22;10905;50.822;4.336;2024-03-17T13:27:48;17.10;99.90
21487;DHT22;10905;50.822;4.336;2024-03-17T13:30:15;17.30;99.90
21487;DHT22;10905;50.822;4.336;2024-03-17T13:32:41;17.30;99.90
21487;DHT22;10905;50.822;4.336;2024-03-17T13:35:16;17.50;99.90
21487;DHT22;10905;50.822;4.336;2024-03-17T13:37:49;17.50;99.90
21487;DHT22;10905;50.822;4.336;2024-03-17T13:40:18;17.30;99.90
21487;DHT22;10905;50.822;4.336;2024-03-17T13:42:52;17.30;99.90
21487;DHT22;10905;50.822;4.336;2024-03-17T13:45:19;17.10;99.90
21487;DHT22;10905;50.822;4.336;2024-03-17T13:47:57;17.10;99.90
21487;DHT22;10905;50.822;4.336;2024-03-17T13:50:23;17.10;99.90
21487;DHT22;10905;50.822;4.336;2024-03-17T13:52:49;17.10;99.90
21487;DHT22;10905;50.822;4.336;2024-03-17T13:55:19;17.10;99.90
21487;DHT22;10905;50.822;4.336;2024-03-17T13:57:56;17.10;99.90
21487;DHT22;10905;50.822;4.336;2024-03-17T14:00:29;17.20;99.90
21487;DHT22;10905;50.822;4.336;2024-03-17T14:03:01;17.10;99.90
21487;DHT22;10905;50.822;4.336;2024-03-17T14:05:27;17.00;99.90
21487;DHT22;10905;50.822;4.336;2024-03-17T14:07:54;17.00;99.90
21487;DHT22;10905;50.822;4.336;2024-03-17T14:10:22;17.20;99.90
21487;DHT22;10905;50.822;4.336;2024-03-17T14:12:48;17.10;99.90
21487;DHT22;10905;50.822;4.336;2024-03-17T14:15:15;17.10;99.90
21487;DHT22;10905;50.822;4.336;2024-03-17T14:17:42;16.90;99.90
21487;DHT22;10905;50.822;4.336;2024-03-17T14:20:08;17.00;99.90
21487;DHT22;10905;50.822;4.336;2024-03-17T14:22:38;16.90;99.90
21487;DHT22;10905;50.822;4.336;2024-03-17T14:25:08;16.80;99.90
21487;DHT22;10905;50.822;4.336;2024-03-17T14:27:36;16.70;99.90
21487;DHT22;10905;50.822;4.336;2024-03-17T14:30:02;16.70;99.90
21487;DHT22;10905;50.822;4.336;2024-03-17T14:32:29;16.50;99.90
21487;DHT22;10905;50.822;4.336;2024-03-17T14:34:55;16.40;99.90
21487;DHT22;10905;50.822;4.336;2024-03-17T14:37:21;16.40;99.90
21487;DHT22;10905;50.822;4.336;2024-03-17T14:39:48;16.30;99.90
21487;DHT22;10905;50.822;4.336;2024-03-17T14:42:13;16.30;99.90
21487;DHT22;10905;50.822;4.336;2024-03-17T14:44:40;16.30;99.90
21487;DHT22;10905;50.822;4.336;2024-03-17T14:47:05;16.40;99.90
21487;DHT22;10905;50.822;4.336;2024-03-17T14:49:32;16.60;99.90
21487;DHT22;10905;50.822;4.336;2024-03-17T14:51:58;16.60;99.90
21487;DHT22;10905;50.822;4.336;2024-03-17T14:54:25;16.60;99.90
21487;DHT22;10905;50.822;4.336;2024-03-17T14:56:51;16.60;99.90
21487;DHT22;10905;50.822;4.336;2024-03-17T14:59:17;16.70;99.90
21487;DHT22;10905;50.822;4.336;2024-03-17T15:01:45;16.60;99.90
21487;DHT22;10905;50.822;4.336;2024-03-17T15:04:10;16.40;99.90
21487;DHT22;10905;50.822;4.336;2024-03-17T15:06:36;16.30;99.90
21487;DHT22;10905;50.822;4.336;2024-03-17T15:09:02;16.20;99.90
21487;DHT22;10905;50.822;4.336;2024-03-17T15:11:29;16.10;99.90
21487;DHT22;10905;50.822;4.336;2024-03-17T15:13:54;15.90;99.90
21487;DHT22;10905;50.822;4.336;2024-03-17T15:16:20;16.10;99.90
21487;DHT22;10905;50.822;4.336;2024-03-17T15:18:46;16.20;99.90
21487;DHT22;10905;50.822;4.336;2024-03-17T15:21:12;16.20;99.90
21487;DHT22;10905;50.822;4.336;2024-03-17T15:23:38;16.20;99.90
21487;DHT22;10905;50.822;4.336;2024-03-17T15:26:06;16.20;99.90
21487;DHT22;10905;50.822;4.336;2024-03-17T15:28:36;16.20;99.90
21487;DHT22;10905;50.822;4.336;2024-03-17T15:31:05;16.20;99.90
21487;DHT22;10905;50.822;4.336;2024-03-17T15:33:35;16.10;99.90
21487;DHT22;10905;50.822;4.336;2024-03-17T15:36:05;15.90;99.90
21487;DHT22;10905;50.822;4.336;2024-03-17T15:38:31;16.00;99.90
21487;DHT22;10905;50.822;4.336;2024-03-17T15:41:04;15.90;99.90
21487;DHT22;10905;50.822;4.336;2024-03-17T15:43:35;15.70;99.90
21487;DHT22;10905;50.822;4.336;2024-03-17T15:46:07;15.70;99.90